Aeroporto :
LOGIN :

Iscrizione | Disclaimer

   EN    FR    IT 

 










Sommario :    VFR   VFR Marginale   IFR   IFR Intensivo   IFR Molto Intensivo
Visibilità : 
Base nubi : 
>= 8 km
>= 3000ft
5 / 8 km
1000 / 3000 ft
1500m / 5 km
500 / 1000 ft
800 / 1500m
200 / 500 ft
< 800m
< 200 ft
Simboli :   Temporali  Nebbia  Neve Forte  Precipitazioni Forti  Vento > 20 kt
SIGMETs :   Varie  Temporali  Ghiacco  Turbolenza  Onda orograficha  Ceneri Vulcaniche







- Altitudine del aeroporto : 3 ft
- Codice IATA : DHR


EHKD - Den Helder De Kooy

ULTIMO METAR :
  • 211755Z AUTO 24006KT 9999 NCD 18/12 Q1026 BLU 240009KT CAVOK

METARs OBSOLETI :
  • 211725Z AUTO 23007KT 9999 NCD 19/11 Q1026 BLU 240009KT CAVOK
  • 211655Z AUTO 24009KT 210V270 9999 FEW230 19/11 Q1026 BLU 240009KT CAVOK
  • 211625Z AUTO 24007KT 180V270 9999 OVC270 19/10 Q1027 BLU 240009KT CAVOK
  • 211555Z AUTO 23008KT 190V260 9999 OVC160 20/11 Q1027 BLU 240009KT CAVOK
  • 211525Z AUTO 24009KT 200V270 9999 OVC180 19/11 Q1027 BLU 240009KT CAVOK
  • 211455Z AUTO 24010KT 200V270 9999 OVC210 20/11 Q1027 BLU 240009KT CAVOK

TAF COR TAF EHKD
Valido dal 21 a 17 ore il 22 a 05 ore UTC


211645Z 2117/2205 23007KT CAVOK
BECMG 2118/2121 16005KT
Nessun NOTAM noto per questo aeroporto.



MetMap, La meteo Aeronautica in un colpo d'occhio ! - Copyright ORBIFLY Dicembre 2007 - Disclaimer

ORBIFLY MET'MAP TEAM :

Programmazione e sviluppo : Alexandra Zaïnal
Concezione e sviluppo : Baudouin d'Aumeries
Co-Programmazione e sviluppo : Marc-Olivier Méhu
Supporto tecnico e logistico : Manuel Goepfert
Aiuto per la traduzione : Arnaldo La Scala

Contatto : metmap@orbifly.com




FONTI E CREDITI :

   NOAA